Have a Safe July 4th! 

Flight Track Log - Related Links

Times and Time Zones

All times are in EDT time to prevent confusion due to time zone crossing. See the GJS3651 flight status page for this flight to view local times or setup timezone preferences in your user account.

Time Position Orientation Groundspeed Altitude Reporting Facility
EDT Latitude Longitude Course Direction KTS MPH feet Rate Location/Type
Sun 07:05:59 AM 43.0633 -89.3192 163° South 178 205 4,300  Level Chicago Center
Sun 07:06:59 AM 42.9989 -89.2886 161° South 221 254 6,700 2,727 Climbing Chicago Center
Sun 07:08:00 AM 42.8603 -89.2218 160° South  Level FlightAware Approximate
Sun 07:08:00 AM 42.9242 -89.2556 162° South 273 314 9,800  Level Chicago Center
Sun 07:09:00 AM 42.7903 -89.2018 170° South  Level FlightAware Approximate
Sun 07:09:00 AM 42.8422 -89.2200 162° South 312 359 10,900  Level Chicago Center
Sun 07:10:00 AM 42.7261 -89.1733 163° South  Level FlightAware Approximate
Sun 07:10:01 AM 42.7467 -89.1794 163° South 354 407 10,900  Level Chicago Center
Sun 07:11:00 AM 42.6518 -89.1424 163° South  Level FlightAware Approximate
Sun 07:11:01 AM 42.6572 -89.1436 164° South 340 391 10,300  Level Chicago Center
Sun 07:12:02 AM 42.5769 -89.1114 164° South 309 356 10,000 -198 Descending Chicago Center
Sun 07:13:02 AM 42.5294 -89.0119 123° Southeast 330 380 9,900 -694 Descending Chicago Center
Sun 07:14:03 AM 42.4992 -88.9075 111° Southeast 305 351 8,600 -1,438 Descending Chicago Center
Sun 07:15:03 AM 42.4678 -88.8011 112° Southeast 293 337 7,000 -793 Descending Chicago Center
Sun 07:16:04 AM 42.4383 -88.7100 114° Southeast 288 331 7,000  Level Chicago Center
Sun 07:17:04 AM 42.4075 -88.6067 112° Southeast 289 333 7,000  Level Chicago Center
Sun 07:18:05 AM 42.3758 -88.5072 113° Southeast 290 334 7,000  Level Chicago Center
Sun 07:19:05 AM 42.3122 -88.4253 136° Southeast 288 331 7,000 -347 Level Chicago Center
Sun 07:20:06 AM 42.2553 -88.3586 139° Southeast 275 316 6,300 -1,041 Descending Chicago Center
Sun 07:21:06 AM 42.1961 -88.3017 145° Southeast 263 303 4,900 -1,140 Descending Chicago Center
Sun 07:22:07 AM 42.1306 -88.2797 166° South 244 281 4,000 -443 Descending Chicago Center
Sun 07:23:08 AM 42.0756 -88.2472 156° South 215 247 4,000  Level Chicago Center
Sun 07:24:08 AM 42.0308 -88.1867 135° Southeast 212 244 4,000 -248 Level Chicago Center
Sun 07:25:09 AM 41.9983 -88.1275 126° Southeast 201 231 3,500 -492 Descending Chicago Center
Sun 07:26:10 AM 41.9811 -88.0719 113° Southeast 163 188 3,000 -645 Descending Chicago Center
Sun 07:27:10 AM 41.9836 -88.0186 86° East 144 166 2,200 -694 Descending Chicago Center
Sun 07:28:11 AM 41.9833 -87.9778 91° East 116 133 1,600 -590 Descending Chicago Center
Sun 07:29:12 AM 41.9828 -87.9344 91° East 115 132 1,000 -347 Descending Chicago Center
Sun 07:30:12 AM 41.9819 -87.8933 92° East 116 133 900 -100 Descending Chicago Center

Login

Don't have an account? Register now (free) for customized features, flight alerts, and more!